KNKX/NKX METAR and TAF weather

Enter ICAO airport designator
Station Type Date Time Source
KNKX METAR 2018/12/17 01:55 UTC NOAA

KNKX 170155Z 00000KT 8SM CLR 15/11 A3013 RMK AO2 SLP200 T01500111


Station Type Date Time Source
KNKX Decoded METAR 2018/12/17 01:55 UTC NOAA

MCAS MIRAMAR, CA, United States (KNKX) 32-52N 117-09W 146M
Dec 16, 2018 - 08:55 PM EST / 2018.12.17 0155 UTC
Wind: Calm:0
Visibility: 8 mile(s):0
Sky conditions: clear
Temperature: 59.0 F (15.0 C)
Dew Point: 52.0 F (11.1 C)
Relative Humidity: 77%
Pressure (altimeter): 30.13 in. Hg (1020 hPa)
ob: KNKX 170155Z 00000KT 8SM CLR 15/11 A3013 RMK AO2 SLP200 T01500111
cycle: 2

Station Type Date Time Source
KNKX TAF 2018/12/16 21:03 UTC NOAA

TAF KNKX 1621/1721 VRB06KT 9999 FEW250 QNH3007INS T23/1621Z T11/1713Z


Example: see airport list